Hc Nadja Maria — V2AV4 — position and weather

sailwx.info

Track history (hours):
 
Tides and Currents Weather Stations Pressure Air Temp Water Temp Dewpoint Dewpoint Depression Visibility Wind Speed Wind Dir Waves Ship Positions

Hc Nadja Maria

Last reported at 2015-May-15 11:33 UTC. Time now 2015-May-28 22:18 UTC.
Position N 29°24' W 094°49'.
Warning: this ship's position is 13 days out of date.

Length 130 m; draft 7.4 m.

Type: Cargo ship. MMSI: 304204000.

Date/timePositionNaut miles runAvg speedWind from/ knotsBaromVisibWave heightAir tempDewpointWater temp
2015-May-15 11:33N 29°24' W 094°49'1211.8
2015-May-15 10:34N 29°34' W 094°55'1111.0
2015-May-15 09:34N 29°44' W 095°02'7 6.7
2015-May-15 08:33N 29°44' W 095°09'7 4.5
2015-May-15 07:04N 29°45' W 095°17'0 0.0
2015-May-15 06:19N 29°45' W 095°17'0 0.0
2015-May-15 05:31N 29°45' W 095°17'0 0.0
2015-May-15 04:28N 29°45' W 095°17'0 0.0
2015-May-14 18:13N 29°45' W 095°17'0 0.0
2015-May-14 16:13N 29°45' W 095°17'0 0.0
2015-May-14 11:31N 29°45' W 095°17'0 0.0
2015-May-14 10:31N 29°45' W 095°17'0 0.0
2015-May-14 09:28N 29°45' W 095°17'0 0.0
2015-May-14 08:10N 29°45' W 095°17'0 0.0
2015-May-14 07:31N 29°45' W 095°17'0 0.0
2015-May-14 01:16N 29°45' W 095°17'0 0.0
2015-May-14 00:19N 29°45' W 095°17'0 0.0
2015-May-13 23:16N 29°45' W 095°17'0 0.0
2015-May-13 22:31N 29°45' W 095°17'0 0.0
2015-May-13 18:28N 29°45' W 095°17'0 0.0
2015-May-13 17:16N 29°45' W 095°17'0 0.0
2015-May-13 15:31N 29°45' W 095°17'0 0.0
2015-May-13 13:25N 29°45' W 095°17'0 0.0
2015-May-13 12:04N 29°45' W 095°17'0 0.0
2015-May-13 11:04N 29°45' W 095°17'0 0.0
2015-May-13 09:22N 29°45' W 095°17'0 0.0
2015-May-13 08:28N 29°45' W 095°17'0 0.0
2015-May-13 07:31N 29°45' W 095°17'0 0.0
2015-May-13 05:31N 29°45' W 095°17'0 0.0
2015-May-13 04:31N 29°45' W 095°17'0 0.0
2015-May-13 03:04N 29°45' W 095°17'0 0.0
2015-May-13 02:19N 29°45' W 095°17'0 0.0
2015-May-13 01:04N 29°45' W 095°17'0 0.0
2015-May-13 00:25N 29°45' W 095°17'0 0.0
2015-May-12 23:22N 29°45' W 095°17'0 0.0
2015-May-12 22:16N 29°45' W 095°17'0 0.0
2015-May-12 21:13N 29°45' W 095°17'0 0.0
2015-May-12 14:22N 29°45' W 095°17'0 0.0
2015-May-12 13:19N 29°45' W 095°17'0 0.0
2015-May-12 12:22N 29°45' W 095°17'0 0.0
2015-May-12 11:31N 29°45' W 095°17'0 0.0
2015-May-12 10:28N 29°45' W 095°17'0 0.0
2015-May-12 09:28N 29°45' W 095°17'0 0.0
2015-May-12 08:28N 29°45' W 095°17'0 0.0
2015-May-12 07:28N 29°45' W 095°17'0 0.0
2015-May-11 23:22N 29°45' W 095°17'0 0.0
2015-May-11 17:22N 29°45' W 095°17'0 0.0
2015-May-11 12:10N 29°45' W 095°17'0 0.0
2015-May-11 11:13N 29°45' W 095°17'0 0.0
2015-May-11 10:31N 29°45' W 095°17'0 0.0
2015-May-11 09:31N 29°45' W 095°17'0 0.0
2015-May-11 08:16N 29°45' W 095°17'0 0.0
2015-May-11 07:28N 29°45' W 095°17'0 0.0
2015-May-11 06:16N 29°45' W 095°17'0 0.0
2015-May-11 05:31N 29°45' W 095°17'0 0.0
2015-May-11 04:28N 29°45' W 095°17'0 0.0
2015-May-11 03:31N 29°45' W 095°17'0 0.0
2015-May-11 02:28N 29°45' W 095°17'0 0.0
2015-May-11 01:13N 29°45' W 095°17'1 1.0
2015-May-11 00:32N 29°45' W 095°17'4 4.0
2015-May-10 23:26N 29°44' W 095°12'5 5.6
2015-May-10 22:32N 29°44' W 095°07'6 5.9
2015-May-10 21:33N 29°42' W 095°01'1211.8
2015-May-10 20:33N 29°32' W 094°54'  
2015-May-06 21:32N 29°52' W 089°59'6 6.4
2015-May-06 20:32N 29°57' W 090°02'4 1.8
2015-May-06 18:32N 29°55' W 090°05'0 0.0
2015-May-06 16:18N 29°55' W 090°05'0 0.0
2015-May-06 15:33N 29°55' W 090°05'0 0.0
2015-May-06 12:06N 29°55' W 090°05'0 0.0
2015-May-06 10:30N 29°55' W 090°05'0 0.0
2015-May-06 06:18N 29°55' W 090°05'  
Track history (hours):
 
Tides and Currents Weather Stations Pressure Air Temp Water Temp Dewpoint Dewpoint Depression Visibility Wind Speed Wind Dir Waves Ship Positions

Hc Nadja Maria

Last reported at 2015-May-15 11:33 UTC. Time now 2015-May-28 22:18 UTC.
Position N 29°24' W 094°49'.
Warning: this ship's position is 13 days out of date.

Length 130 m; draft 7.4 m.

Type: Cargo ship. MMSI: 304204000.

Date/timePositionNaut miles runAvg speedWind from/ knotsBaromVisibWave heightAir tempDewpointWater temp
2015-May-15 11:33N 29°24' W 094°49'1211.8
2015-May-15 10:34N 29°34' W 094°55'1111.0
2015-May-15 09:34N 29°44' W 095°02'7 6.7
2015-May-15 08:33N 29°44' W 095°09'7 4.5
2015-May-15 07:04N 29°45' W 095°17'0 0.0
2015-May-15 06:19N 29°45' W 095°17'0 0.0
2015-May-15 05:31N 29°45' W 095°17'0 0.0
2015-May-15 04:28N 29°45' W 095°17'0 0.0
2015-May-14 18:13N 29°45' W 095°17'0 0.0
2015-May-14 16:13N 29°45' W 095°17'0 0.0
2015-May-14 11:31N 29°45' W 095°17'0 0.0
2015-May-14 10:31N 29°45' W 095°17'0 0.0
2015-May-14 09:28N 29°45' W 095°17'0 0.0
2015-May-14 08:10N 29°45' W 095°17'0 0.0
2015-May-14 07:31N 29°45' W 095°17'0 0.0
2015-May-14 01:16N 29°45' W 095°17'0 0.0
2015-May-14 00:19N 29°45' W 095°17'0 0.0
2015-May-13 23:16N 29°45' W 095°17'0 0.0
2015-May-13 22:31N 29°45' W 095°17'0 0.0
2015-May-13 18:28N 29°45' W 095°17'0 0.0
2015-May-13 17:16N 29°45' W 095°17'0 0.0
2015-May-13 15:31N 29°45' W 095°17'0 0.0
2015-May-13 13:25N 29°45' W 095°17'0 0.0
2015-May-13 12:04N 29°45' W 095°17'0 0.0
2015-May-13 11:04N 29°45' W 095°17'0 0.0
2015-May-13 09:22N 29°45' W 095°17'0 0.0
2015-May-13 08:28N 29°45' W 095°17'0 0.0
2015-May-13 07:31N 29°45' W 095°17'0 0.0
2015-May-13 05:31N 29°45' W 095°17'0 0.0
2015-May-13 04:31N 29°45' W 095°17'0 0.0
2015-May-13 03:04N 29°45' W 095°17'0 0.0
2015-May-13 02:19N 29°45' W 095°17'0 0.0
2015-May-13 01:04N 29°45' W 095°17'0 0.0
2015-May-13 00:25N 29°45' W 095°17'0 0.0
2015-May-12 23:22N 29°45' W 095°17'0 0.0
2015-May-12 22:16N 29°45' W 095°17'0 0.0
2015-May-12 21:13N 29°45' W 095°17'0 0.0
2015-May-12 14:22N 29°45' W 095°17'0 0.0
2015-May-12 13:19N 29°45' W 095°17'0 0.0
2015-May-12 12:22N 29°45' W 095°17'0 0.0
2015-May-12 11:31N 29°45' W 095°17'0 0.0
2015-May-12 10:28N 29°45' W 095°17'0 0.0
2015-May-12 09:28N 29°45' W 095°17'0 0.0
2015-May-12 08:28N 29°45' W 095°17'0 0.0
2015-May-12 07:28N 29°45' W 095°17'0 0.0
2015-May-11 23:22N 29°45' W 095°17'0 0.0
2015-May-11 17:22N 29°45' W 095°17'0 0.0
2015-May-11 12:10N 29°45' W 095°17'0 0.0
2015-May-11 11:13N 29°45' W 095°17'0 0.0
2015-May-11 10:31N 29°45' W 095°17'0 0.0
2015-May-11 09:31N 29°45' W 095°17'0 0.0
2015-May-11 08:16N 29°45' W 095°17'0 0.0
2015-May-11 07:28N 29°45' W 095°17'0 0.0
2015-May-11 06:16N 29°45' W 095°17'0 0.0
2015-May-11 05:31N 29°45' W 095°17'0 0.0
2015-May-11 04:28N 29°45' W 095°17'0 0.0
2015-May-11 03:31N 29°45' W 095°17'0 0.0
2015-May-11 02:28N 29°45' W 095°17'0 0.0
2015-May-11 01:13N 29°45' W 095°17'1 1.0
2015-May-11 00:32N 29°45' W 095°17'4 4.0
2015-May-10 23:26N 29°44' W 095°12'5 5.6
2015-May-10 22:32N 29°44' W 095°07'6 5.9
2015-May-10 21:33N 29°42' W 095°01'1211.8
2015-May-10 20:33N 29°32' W 094°54'  
2015-May-06 21:32N 29°52' W 089°59'6 6.4
2015-May-06 20:32N 29°57' W 090°02'4 1.8
2015-May-06 18:32N 29°55' W 090°05'0 0.0
2015-May-06 16:18N 29°55' W 090°05'0 0.0
2015-May-06 15:33N 29°55' W 090°05'0 0.0
2015-May-06 12:06N 29°55' W 090°05'0 0.0
2015-May-06 10:30N 29°55' W 090°05'0 0.0
2015-May-06 06:18N 29°55' W 090°05'  

Dump ship's entire track history